Terminal Aerodrome Forecast
Issued by NWS

Current Version | Previous Version | Graphics & Text | Print | Product List | Glossary On
Versions: 1 2 3 4 5 6 7 8 9 10 11 12 13 14 15 16 17 18 19 20 21
000
FTUS41 KILN 222340
TAFLUK
TAF
KLUK 222340Z 2300/2324 15005KT P6SM BKN150
     FM230900 13006KT P6SM VCSH OVC060
     FM231200 14007KT 3SM SHRA OVC015
     FM231700 17009KT 6SM -SHRA OVC025
     FM232000 19009KT P6SM VCSH OVC050
     FM232300 20009KT P6SM -SHRA OVC025=

USA.gov is the U.S. government's official web portal to all federal, state and local government web resources and services.